Timeline UpdatesTrip UpdatesNews PostsPvt PostsTravel TipsAdmin PostsConv PostsFollowed PostsChat RequestsBlog PostsPNR Posts

Disclaimer
Search
 
 
Fri Jul 25, 2014 20:50:35 ISTHomeTrainsΣChainsAtlasPNRForumGalleryNewsFAQTripsMembersLoginFeedback
No Recent News for this Train
Other Trains in the News **new
Latest...
.
Fri Dec 13, 2013 (03:40PM)
⇐ Return Journey: Train# 12834

12833/Ahmedabad- Howrah SF Express

Aug 26 2013 (10:42AM)
Change Departure Station:
Change Arrival Station:
Post a Train Travel TipPost a Train Travel Tip **new
Post a Comment/Question/Picture/VideoPost a Comment/Question/Picture/Video
Pantry/Catering
✓ Pantry Car Avbl
✓ Catering Avbl
RSA - Rake Sharing
Rake/Coach Composition
LOCO(SRC WAP-4)-SLR-LD-GEN-A2-A1-B2-B1-S13-S12-PC-S11-S10-S9-S8-S7-S6-S5-S4-S3-S2-S1-GEN-SLR As per Entry# 262159
Loco
Loco: SRC WAP 4 ... Entry# 289462
News    PNR    Forum    Time-Table    Availability    Fare Chart    Map    Arr/Dep History    Trips    Gallery    ΣChains    X/O    Timeline    
Travel Time: 11h 42m    14 halts    Distance: 677 km    Avg Speed: 57 km/hr
Type: SuperFast
Zone: SER/South Eastern
Departs @ 01:48 (Avg 31m late)
Platform# ???
SMTWTFS
Naila/NIA 
Arrives @ 13:30 (Avg 15m late)
Platform# 17
SMTWTFS
Kolkata Howrah Junction/HWH 

14 halts. 110 intermediate Stations between Naila and Kolkata Howrah Junction

Show ALL intermediate Stations  Show Old Time-Table

#CodeStation NameX/OArrivesAvgDepartsAvgHaltPFDay#KmSpeedElevZoneAddress
1ADIAhmedabad Junction (12)  -23:55+461-1411.52451mWRAhmedabad, Gujarat
2MANManinagar (2)  00:03+2100:05+212m12-1408.36950mWRAhmadabad, Gujarat
3NDNadiad Junction (4)X  00:42+1900:44+182m12-1365.96237mWRNadiad, Gujarat
4ANNDAnand Junction (6)  01:02+2001:04+292m12-1347.44944mWRAnand, Gujarat
5BRCVadodara Junction (7)  01:48+2701:55+277m12-1311.78836mWRVadodara 390005, Gujarat
6BHBharuch Junction (5)X  02:43+2402:45+232m42-1241.25919mWRBharuch, Gujarat
7STSurat (4)X  03:45+2803:55+2810m32-1181.93419mWRSurat 395001, Gujarat
8UDNUdhna Junction (3)  04:02+3104:04+362m32-1177.96316mWRUdhna 394210, Gujarat
9BIYBardoli (2)  04:30+4404:32+442m12-1150.75935mWRNear Bardoli Sugar Factory Bardoli, Gujarat
10MIDMadhi (1)X  04:47+4904:49+492m12-1135.85345mWRMadhi, Gujarat
11VYAVyara (2)X  05:06+5205:08+522m22-1120.95590mWRVyara, Gujarat
12NWUNavapur (2)X  05:54+5305:56+1:012m--2-1079.049124mWRNavapur, Gujarat
13NDBNandurbar (3)  07:07+4607:15+448m22-1021.146203mWRNandurbar, Maharashtra
14DDEDondaicha (2)  08:00+3508:02+352m12-986.745163mWRDondaicha, Maharashtra
15SNKSindkheda (1)  08:28+3008:30+292m12-967.353178mWRState Highway 11, Maharashtra
16ANAmalner (1)  09:17+2709:20+203m12-925.762188mWRAmalner, Maharashtra
17DXGDharangaon (2)  09:44+1909:46+192m12-900.834217mWRDharangaon, Maharashtra
18JLJalgaon Junction (4)X  10:38+1110:40+152m12-871.158213mCRJalgaon 425001, Maharashtra
19BSLBhusaval Junction (8)  11:05+1611:20+1415m12-847.065208mCRBhusaval 425201, Maharashtra
20MKUMalkapur (2)X  12:06+1512:08+152m22-797.184252mCRMalkapur, Maharashtra
21NNNandura  12:28+1712:30+172m22-769.292267mCRNandura, Maharashtra
22JMJalamb Junction (3)  12:38+2012:40+192m12-757.092259mCRJalamb, Maharashtra
23SEGShegaon (2)X  12:48+2212:50+222m22-744.789281mCRShegaon 444203, Maharashtra
24AKAkola Junction (7)XO  13:15+2813:20+285m22-707.459284mCRAkola-444001, Maharashtra
25MZRMurtizapur (3)XO  13:58+2014:00+202m12-670.246303mCRMurtajapur, Maharashtra
26BDBadnera Junction (4)X  14:55+515:00+95m22-628.586335mCRBadnera (Amravati) 444701, Maharashtra
27CNDChandur (2)  15:20+1515:22+152m12-599.777331mCRAmravati Distt, Maharashtra
28DMNDhamangaon (2)X  15:35+1615:37+162m22-583.180300mCRDhamangaon, Maharashtra
29PLOPulgaon Junction (3)X  15:52+1715:54+172m12-563.168273mCRPulgaon, Maharashtra
30WRWardha Junction  16:20+1616:23+153m32-533.575289mCRWardha 442001, Maharashtra
31AJNIAjni (3)  17:24+817:26+82m12-457.78310mCRNagpur 440003, Maharashtra
32NGPNagpur Junction (8)X  17:50+518:00+910m12-454.748314mCRNagpur 440001, Maharashtra
33KPKamptee (3)X  18:18+1918:20+192m--2-440.396290mSECRMH 441001, Maharashtra
34BRDBhandara Road (2)X  18:50+2218:52+222m--2-392.477266mSECRState Highway 252, Maharashtra
35TMRTumsar Road (3)X  19:06+2419:08+242m--2-374.581267mSECRBhandara, Maharashtra
36TROTirora (3)  19:23+2619:25+272m--2-354.157282mSECRDist Gondiya, Maharashtra
37GGondia Junction (7)X  19:56+2219:58+232m22-324.891316mSECRGondia 441601, Maharashtra
38AGNAmgaon (2)X  20:13+2920:15+292m--2-302.072317mSECRGondia, Maharashtra
39DGGDongargarh (2)  20:57+3220:59+322m--2-251.586353mSECRDongargarh, Chhattisgarh
40RJNRaj Nandgaon (3)X  21:21+3221:23+322m12-220.039313mSECRRajnandgaon, Chhattisgarh
41DURGDurg Junction (6)  22:10+1822:15+195m32-189.660299mSECRPh: 91-788-2322059, Chhattisgarh
42BPHBBhilai Power House (3)X  22:24+622:26+62m12-180.658312mSECRBhilai, Chhattisgarh
43RRaipur Junction (6)X  22:55+2123:05+2110m62-152.679297mSECRRaipur, Chhattisgarh
44TLDTilda (3)  23:34+2923:36+292m--2-114.487291mSECRBanjari Rd, Chhattisgarh
45BYTBhatapara (4)  23:54+3123:56+312m--2-88.447270mSECRBanjari Road, Chhattisgarh
46BSPBilaspur Junction (8)X  00:55+1501:10+2315m23-42.278271mSECRBilaspur, Chhattisgarh
47AKTAkaltara (4)  01:31+2801:33+292m--3-14.969284mSECRDist. Janjgir Champa, Chhattisgarh
48NIA»Naila»X  01:46+3001:48+312m--30.054273mSECRJanjgir, Chhattisgarh
49CPHChampa Junction (3)X  02:00+3202:03+373m--310.893264mSECRNational Highway 200 (07819-245767), Chhattisgarh
50BUABaradwarX  02:13+4302:15+432m--326.486256mSECRJanjgir-Champa, Chhattisgarh
51KHSKharsia  02:36+4602:38+462m--356.685259mSECRNational Highway 200, Chhattisgarh
52RIGRaigarh (3)XO  03:02+4803:07+485m--390.690220mSECRRaigarh, Chhattisgarh
53BPHBelpahar  03:41+5403:43+542m--3141.754235mSECRBelpahar, Odisha
54BRJNBrajrajnagarX  03:53+5303:55+532m--3150.611212mSECRBrajrajnagar, Odisha
55JSGJharsuguda Junction (5)X  05:00+1005:02+162m23162.281236mSERJharsuguda, Odisha
56BMBBamra (3)  05:29+1805:31+182m--3198.880259mSERBamra PH : 06642-229268, Odisha
57GPRaj Gangpur (3)X  05:57+1905:59+192m23233.454237mSERRaj Ganpur, Odisha
58ROURourkela Junction (5)  06:32+1606:47+1715m13263.275198mSERRourkela, Odisha
59CKPChakradharpur (3)X  08:08+1808:15+187m23364.257235mSERChakradharpur (West Singhbhum), Jharkhand
60TATATatanagar Junction (5)  09:20+1209:35+1315m53426.579164mSER91-657-2423026, Jharkhand
61KGPKharagpur Junction (10)  11:17+1911:22+195m63561.67342mSERKharagpur, West Bengal
62SRCKolkata Santragachi Junction (6)  12:50+1512:52+142m63669.2127mSERDist: Howrah - 711104, West Bengal
63HWH•Kolkata Howrah Junction (23)•  13:30+15-173676.6-10mERHowrah 711101, West Bengal
Scroll to Top
Scroll to Bottom